KOWB

Owensboro-Daviess County Regional Airport

Owensboro, Kentucky, USA
METAR KOWB 191656Z VRB04KT 10SM BKN030 BKN050 29/22 A2997 RMK AO2 SLP153 T02940222
Observed Flight Rules
Aug-19 @ 16:56 UTC (16 minutes ago) Marginal Visual Flight Rules
Wind Visibility Clouds
Variable at 4 knots 10 miles
  • Broken at 3,000' AGL
  • Broken at 5,000' AGL
Temperatures Readings
Current 29°C / 84°F
Dewpoint 22°C / 72°F
Humidity 66%
Altimeter 29.97" Hg
Pressure 1015.3 hPa
Elevation 124
METAR KOWB 191656Z VRB04KT 10SM BKN030 BKN050 29/22 A2997 RMK AO2 SLP153 T02940222
Observed Flight Rules
Aug-19 @ 16:56 UTC
(16 minutes ago)
MVFR
Wind Visibility
Variable at 4 knots 10 miles
Clouds
  • Broken at 3,000' AGL
  • Broken at 5,000' AGL
Temperature Dewpoint
29°C / 84°F 22°C / 72°F
Humidity Altimeter Pressure
66% 29.97" Hg 1015.3 hPa